x

Nantucket 54nm Southeast Of Nantucket (44008) Wave Buoy

8:50am - Thu 25th May 2017 All times are EDT. -4 hours from GMT.

  • Sig Wave height 6.6ft
  • Swell Direction
  • Peak Period 8s
  • Average Period 6s
  • Wind
    16mph, 18mph gusts
  • Sea Temp 48°f
  • Air Temp 50°f
  • Sea Pressure 1007.8mb
  • Nantucket 54nm Southeast Of Nantucket
  • Nantucket 54nm Southeast Of Nantucket

More Historic Weather Station data

Upgrade to MSW Pro to gain access to the past 30 days of data for over 8000 Wavebouys and Weather Stations around the globe.

Join Pro

Comparision Forecast

View Surf forecast
   
Thu 05/25 8:50am 6.5ft 8s 6s 16 18 mph 1007.8mb 48f 50f
7:50am 6.5ft 10s 6s 16 20 mph 1008.1mb 48f 50f
6:50am 8ft 9s 6s 16 18 mph 1008.3mb 49f 50f
5:50am 8ft 9s 7s 16 20 mph 1008.4mb 49f 50f
4:50am 7ft 9s 6s 16 18 mph 1008.6mb 49f 50f
3:50am 6.5ft 9s 6s 16 18 mph 1008.7mb 49f 50f
2:50am 6ft 9s 6s 16 20 mph 1008.3mb 49f 50f
1:50am 7ft 9s 6s 16 18 mph 1008.8mb 49f 50f
12:50am 6.5ft 10s 6s 16 18 mph 1008.6mb 48f 50f
Wed 05/24 11:50pm 6ft 9s 6s 13 16 mph 1009.3mb 48f 50f
10:50pm 7ft 9s 7s 16 18 mph 1008.6mb 48f 50f
9:50pm 6ft 9s 6s 16 20 mph 1008.5mb 48f 50f
8:50pm 7ft 8s 6s 16 20 mph 1007.7mb 49f 51f
7:50pm 7ft 9s 6s 20 25 mph 1006.8mb 49f 52f
6:50pm 7ft 9s 6s 22 29 mph 1006.2mb 49f 51f
5:50pm 7ft 8s 6s 20 25 mph 1005.8mb 49f 51f
4:50pm 7ft 8s 6s 22 27 mph 1005mb 49f 51f
3:50pm 6.5ft 9s 6s 20 25 mph 1005.3mb 49f 50f
2:50pm 5ft 6s 5s 20 25 mph 1005.6mb 49f 50f
1:50pm 5ft 6s 5s 20 22 mph 1005.9mb 49f 50f
12:50pm 5ft 5s 5s 20 25 mph 1006mb 49f 50f
11:50am 5ft 7s 5s 22 27 mph 1005.3mb 49f 50f
10:50am 4.5ft 7s 5s 22 25 mph 1005.7mb 49f 50f
9:50am 4.5ft 7s 5s 20 25 mph 1005.9mb 49f 50f
8:50am 4ft 7s 5s 20 22 mph 1006.4mb 49f 50f
7:50am 3.5ft 8s 5s 20 22 mph 1006.3mb 49f 50f
6:50am 4.5ft 7s 5s 18 20 mph 1006.5mb 49f 51f
5:50am 5ft 7s 6s 18 20 mph 1006.5mb 49f 51f
4:50am 5ft 7s 6s 16 18 mph 1006.7mb 48f 49f
3:50am 5ft 8s 6s 13 16 mph 1007.1mb 49f 49f
2:50am 5ft 8s 6s 7 7 mph 1008.8mb 49f 49f
1:50am 6ft 8s 7s 2 4 mph 1009.9mb 49f 49f
12:50am 5ft 8s 6s 4 4 mph 1010.3mb 49f 49f
Tue 05/23 11:50pm 5.5ft 8s 7s 4 7 mph 1011mb 49f 49f
10:50pm 4.5ft 8s 6s  -  4 mph 1010.9mb 49f 48f
9:50pm 4.5ft 8s 6s 4 7 mph 1010.8mb 49f 48f
8:50pm 4ft 7s 6s  -  2 mph 1010.8mb 49f 48f
7:50pm 3.5ft 7s  -  7 9 mph 1010.3mb 49f 48f
6:50pm 3.5ft 6s 5s 7 9 mph 1009.8mb 49f 48f
5:50pm 3.5ft 6s 5s 11 11 mph 1009.6mb 49f 48f
4:50pm 3.5ft 6s 5s 13 16 mph 1009.2mb 49f 48f
3:50pm 3.5ft 6s 5s 16 18 mph 1009.1mb 49f 49f
2:50pm 3.5ft 7s 4s 18 22 mph 1009.1mb 49f 49f
1:50pm 3ft 5s 5s 20 22 mph 1009.3mb 50f 50f
12:50pm 3ft 5s 5s 16 18 mph 1010.2mb 50f 52f
11:50am 2.5ft 5s 5s 9 9 mph 1010.7mb 51f 53f
10:50am 2.5ft 5s 5s 7 9 mph 1011.2mb 51f 56f
9:50am 2.5ft 5s 5s 7 7 mph 1011.8mb 50f 57f
8:50am 3ft 5s 5s 9 11 mph 1012.1mb 49f 56f
7:50am 3.5ft 5s 5s 9 11 mph 1012.3mb 49f 56f
6:50am 3.5ft 5s 4s 20 22 mph 1011.6mb 49f 55f
5:50am 3.5ft 5s 4s 18 20 mph 1011.9mb 49f 55f
4:50am 3.5ft 6s 4s 16 18 mph 1012.5mb 49f 54f
3:50am 3.5ft 5s 4s 18 20 mph 1013mb 49f 54f
2:50am 3.5ft 8s 5s 16 20 mph 1013.9mb 49f 54f
1:50am 3ft 5s 5s 18 20 mph 1014.6mb 49f 54f
12:50am 2.5ft 5s 5s 16 18 mph 1015.7mb 49f 53f
Mon 05/22 11:50pm 2.5ft 5s 5s 13 16 mph 1016.5mb 49f 53f
10:50pm 2.5ft 5s 5s 13 16 mph 1017.1mb 49f 53f
9:50pm 2.5ft 5s 5s 11 13 mph 1017.9mb 49f 53f
8:50pm 2.5ft 5s 5s 11 13 mph 1018.3mb 49f 52f
7:50pm 2.5ft 5s 4s 11 13 mph 1018.4mb 49f 52f
6:50pm 2ft 4s 4s 11 13 mph 1018.8mb 49f 52f
5:50pm 2ft 8s 4s 11 13 mph 1019mb 49f 52f
4:50pm 1.6ft 8s 4s 11 11 mph 1019.4mb 49f 52f
3:50pm 1.6ft 8s 4s 9 9 mph 1020.1mb 49f 51f
2:50pm 1.6ft 8s 4s 9 11 mph 1020.4mb 49f 51f
1:50pm 1.6ft 8s 4s 11 13 mph 1021.3mb 49f 51f
12:50pm 1.6ft 9s 4s 13 13 mph 1022mb 49f 51f
11:50am 1.3ft 9s 5s 13 16 mph 1022.7mb 49f 51f
10:50am 1.3ft 12s 6s 11 13 mph 1023.5mb 49f 51f
9:50am 1.3ft 11s 6s 9 11 mph 1024.2mb 49f 50f
8:50am 1.3ft 8s 6s 9 11 mph 1024.7mb 50f 50f
7:50am 1.3ft 8s 6s 7 7 mph 1024.9mb 49f 50f
6:50am 1.3ft 8s 6s 7 7 mph 1024.5mb 49f 50f
5:50am 1.3ft 8s 5s 4 4 mph 1024.2mb 49f 49f
4:50am 1.3ft 8s 5s 4 4 mph 1023.6mb 49f 49f
3:50am 1.3ft 11s 5s 4 4 mph 1023.6mb 49f 49f
2:50am 1.3ft 8s 5s 2 4 mph 1023.9mb 49f 49f
1:50am 1.3ft 9s 5s 2 2 mph 1024.5mb 50f 49f
12:50am 1.3ft 8s 5s  -  2 mph 1024.9mb 50f 49f
Sun 05/21 11:50pm 1.3ft 9s 5s  -  0 mph 1025.4mb 49f 49f
10:50pm 1.3ft 9s 5s 2 2 mph 1025.8mb 49f 49f
9:50pm 1.3ft 9s 5s  -  0 mph 1026.4mb 49f 49f
8:50pm 1.3ft 9s 6s 2 2 mph 1026.2mb 50f 50f
7:50pm 1.3ft 12s 5s 2 4 mph 1026.2mb 50f 50f
6:50pm 1.3ft 6s 5s 4 4 mph 1026.1mb 51f 51f
5:50pm 1.3ft 5s 5s 4 4 mph 1026.5mb 50f 51f
4:50pm 1.6ft 6s 5s 4 4 mph 1026.5mb 51f 51f
3:50pm 1.6ft 6s 5s 4 7 mph 1026.8mb 51f 51f
2:50pm 1.6ft 6s 5s 4 7 mph 1027.2mb 50f 51f